createdAt,value
2018-04-16T00:01:01.877Z,15.17
2018-04-16T00:03:28.292Z,16.30
2018-04-16T00:05:54.635Z,16.70
2018-04-16T00:08:20.965Z,18.27
2018-04-16T00:10:47.343Z,17.97
2018-04-16T00:13:14.477Z,19.07
2018-04-16T00:15:41.561Z,18.50
2018-04-16T00:18:07.925Z,17.70
2018-04-16T00:20:34.293Z,19.10
2018-04-16T00:23:01.388Z,16.87
2018-04-16T00:25:27.721Z,18.70
2018-04-16T00:27:54.037Z,17.00
2018-04-16T00:30:20.353Z,19.50
2018-04-16T00:32:52.633Z,18.67
2018-04-16T00:35:25.062Z,18.97
2018-04-16T00:37:57.532Z,18.83
2018-04-16T00:40:30.113Z,18.90
2018-04-16T00:43:02.486Z,19.03
2018-04-16T00:45:34.915Z,18.13
2018-04-16T00:48:07.388Z,17.63
2018-04-16T00:50:40.011Z,17.90
2018-04-16T00:53:12.576Z,17.13
2018-04-16T00:55:45.188Z,17.30
2018-04-16T00:58:18.389Z,15.93
2018-04-16T01:00:50.904Z,15.80
2018-04-16T01:03:23.365Z,15.30
2018-04-16T01:05:55.981Z,17.40
2018-04-16T01:08:28.504Z,18.60
2018-04-16T01:11:01.113Z,19.03
2018-04-16T01:13:33.524Z,17.40
2018-04-16T01:16:06.773Z,18.50
2018-04-16T01:18:39.960Z,17.33
2018-04-16T01:21:12.580Z,18.37
2018-04-16T01:23:44.879Z,17.07
2018-04-16T01:26:17.789Z,17.30
2018-04-16T01:28:50.175Z,19.97
2018-04-16T01:31:22.625Z,19.40
2018-04-16T01:33:55.002Z,18.77
2018-04-16T01:36:27.484Z,19.50
2018-04-16T01:38:59.948Z,18.73
2018-04-16T01:41:32.548Z,17.43
2018-04-16T01:44:05.164Z,17.23
2018-04-16T01:46:37.524Z,18.40
2018-04-16T01:52:06.501Z,15.53
2018-04-16T01:54:38.987Z,14.80
2018-04-16T01:57:11.609Z,16.33
2018-04-16T01:59:55.478Z,12.60
2018-04-16T02:02:28.869Z,12.90
2018-04-16T02:05:01.363Z,14.47
2018-04-16T02:07:48.585Z,14.73
2018-04-16T02:10:21.117Z,12.80
2018-04-16T02:12:55.256Z,12.70
2018-04-16T02:15:27.657Z,10.90
2018-04-16T02:18:00.093Z,11.63
2018-04-16T02:20:33.241Z,11.90
2018-04-16T02:23:07.100Z,11.30
2018-04-16T02:25:39.565Z,11.43
2018-04-16T02:28:11.962Z,11.67
2018-04-16T02:30:44.591Z,11.27
2018-04-16T02:33:17.049Z,10.90
2018-04-16T02:35:49.637Z,10.00
2018-04-16T02:38:22.030Z,9.50
2018-04-16T02:40:54.544Z,9.93
2018-04-16T02:43:26.785Z,10.70
2018-04-16T02:45:59.313Z,9.43
2018-04-16T02:48:31.713Z,8.97
2018-04-16T02:51:04.164Z,9.20
2018-04-16T02:53:36.481Z,8.83
2018-04-16T02:56:08.861Z,8.50
2018-04-16T02:58:41.466Z,8.37
2018-04-16T03:01:13.920Z,7.83
2018-04-16T03:03:46.453Z,7.17
2018-04-16T03:06:19.017Z,7.00
2018-04-16T03:08:51.607Z,7.53
2018-04-16T03:11:24.025Z,7.30
2018-04-16T03:13:59.138Z,8.50
2018-04-16T03:16:31.658Z,7.40
2018-04-16T03:19:04.050Z,8.47
2018-04-16T03:21:36.489Z,8.37
2018-04-16T03:24:09.001Z,8.27
2018-04-16T03:26:41.450Z,7.67
2018-04-16T03:29:13.939Z,8.70
2018-04-16T03:31:46.449Z,8.80
2018-04-16T03:34:18.874Z,9.60
2018-04-16T03:39:47.701Z,9.43
2018-04-16T03:42:20.239Z,9.00
2018-04-16T03:44:52.517Z,9.07
2018-04-16T03:47:25.030Z,8.40
2018-04-16T03:49:57.453Z,9.53
2018-04-16T03:52:40.672Z,8.70
2018-04-16T03:55:07.769Z,8.70
2018-04-16T03:57:34.117Z,8.63
2018-04-16T04:00:00.481Z,7.90
2018-04-16T04:02:27.533Z,6.70
2018-04-16T04:04:54.624Z,6.20
2018-04-16T04:07:20.957Z,6.30
2018-04-16T04:09:47.293Z,6.80
2018-04-16T04:12:13.622Z,6.20
2018-04-16T04:14:40.960Z,6.63
2018-04-16T04:17:07.342Z,6.10
2018-04-16T04:19:33.677Z,6.60
2018-04-16T04:22:00.745Z,6.70
2018-04-16T04:24:39.441Z,6.77
2018-04-16T04:27:18.090Z,7.40
2018-04-16T04:29:56.798Z,9.63
2018-04-16T04:32:23.848Z,9.30
2018-04-16T04:34:50.165Z,7.80
2018-04-16T04:37:17.249Z,7.93
2018-04-16T04:39:43.587Z,9.30
2018-04-16T04:42:09.929Z,8.80
2018-04-16T04:44:37.304Z,8.80
2018-04-16T04:47:03.677Z,9.70
2018-04-16T04:49:30.009Z,9.27
2018-04-16T04:51:56.318Z,10.37
2018-04-16T04:54:22.640Z,8.33
2018-04-16T04:56:48.964Z,7.43
2018-04-16T04:59:15.285Z,7.50
2018-04-16T05:01:41.607Z,5.93
2018-04-16T05:04:07.929Z,7.50
2018-04-16T05:06:34.327Z,6.50
2018-04-16T05:09:00.645Z,6.23
2018-04-16T05:11:27.741Z,5.97
2018-04-16T05:13:54.072Z,6.70
2018-04-16T05:16:20.391Z,6.17
2018-04-16T05:18:46.745Z,6.17
2018-04-16T05:21:13.085Z,7.27
2018-04-16T05:23:39.457Z,7.60
2018-04-16T05:26:06.504Z,6.73
2018-04-16T05:28:33.560Z,7.40
2018-04-16T05:31:00.878Z,7.57
2018-04-16T05:33:28.221Z,8.33
2018-04-16T05:35:54.565Z,7.80
2018-04-16T05:38:20.893Z,7.93
2018-04-16T05:40:47.227Z,8.23
2018-04-16T05:43:13.545Z,7.93
2018-04-16T05:45:39.888Z,7.93
2018-04-16T05:48:06.212Z,8.57
2018-04-16T05:50:32.525Z,8.40
2018-04-16T05:52:58.842Z,7.93
2018-04-16T05:55:25.177Z,9.90
2018-04-16T05:57:51.528Z,9.50
2018-04-16T06:00:17.956Z,10.30
2018-04-16T06:02:44.228Z,9.33
2018-04-16T06:05:11.277Z,9.27
2018-04-16T06:07:38.377Z,10.33
2018-04-16T06:10:04.725Z,10.07
2018-04-16T06:12:31.777Z,10.80
2018-04-16T06:14:58.105Z,11.07
2018-04-16T06:17:25.438Z,11.07
2018-04-16T06:19:51.801Z,9.80
2018-04-16T06:22:18.869Z,11.80
2018-04-16T06:24:45.192Z,11.57
2018-04-16T06:27:11.556Z,11.33
2018-04-16T06:29:37.913Z,11.93
2018-04-16T06:32:04.249Z,11.13
2018-04-16T06:34:30.581Z,12.07
2018-04-16T06:36:56.957Z,13.23
2018-04-16T06:39:23.241Z,13.77
2018-04-16T06:41:49.577Z,15.00
2018-04-16T06:44:15.885Z,14.43
2018-04-16T06:46:42.199Z,16.17
2018-04-16T06:49:08.509Z,14.30
2018-04-16T06:51:34.853Z,15.90
2018-04-16T06:54:02.208Z,16.70
2018-04-16T06:56:28.561Z,16.17
2018-04-16T06:58:54.905Z,16.10
2018-04-16T07:01:21.869Z,18.80
2018-04-16T07:03:48.246Z,18.07
2018-04-16T07:06:14.583Z,19.30
2018-04-16T07:08:40.917Z,19.40
2018-04-16T07:11:07.266Z,20.17
2018-04-16T07:13:33.586Z,20.43
2018-04-16T07:15:59.929Z,21.83
2018-04-16T07:18:26.279Z,20.67
2018-04-16T07:20:52.598Z,28.87
2018-04-16T07:23:19.918Z,38.17
2018-04-16T07:25:46.237Z,23.40
2018-04-16T07:28:12.604Z,22.80
2018-04-16T07:30:38.973Z,24.40
2018-04-16T07:33:05.305Z,22.90
2018-04-16T07:35:32.365Z,25.70
2018-04-16T07:37:58.693Z,24.73
2018-04-16T07:40:25.793Z,26.37
2018-04-16T07:42:52.107Z,25.83
2018-04-16T07:45:18.465Z,26.13
2018-04-16T07:47:44.776Z,26.00
2018-04-16T07:50:11.101Z,27.10
2018-04-16T07:52:37.453Z,25.80
2018-04-16T07:55:03.769Z,25.47
2018-04-16T07:57:30.091Z,26.23
2018-04-16T07:59:56.433Z,26.50
2018-04-16T08:02:22.750Z,27.17
2018-04-16T08:04:49.053Z,26.60
2018-04-16T08:07:16.144Z,27.50
2018-04-16T08:09:42.464Z,25.53
2018-04-16T08:12:08.826Z,25.80
2018-04-16T08:14:36.173Z,26.33
2018-04-16T08:17:02.497Z,26.00
2018-04-16T08:19:28.814Z,27.40
2018-04-16T08:21:55.133Z,25.13
2018-04-16T08:24:21.486Z,26.30
2018-04-16T08:26:47.837Z,24.40
2018-04-16T08:29:14.202Z,23.57
2018-04-16T08:31:40.537Z,23.93
2018-04-16T08:34:07.600Z,23.70
2018-04-16T08:36:33.952Z,26.30
2018-04-16T08:39:00.298Z,23.20
2018-04-16T08:41:26.633Z,22.90
2018-04-16T08:43:52.953Z,22.77
2018-04-16T08:46:19.271Z,23.30
2018-04-16T08:48:45.578Z,23.80
2018-04-16T08:51:12.637Z,22.30
2018-04-16T08:53:38.970Z,21.17
2018-04-16T08:56:05.305Z,21.10
2018-04-16T08:58:31.624Z,22.40
2018-04-16T09:00:59.125Z,20.93
2018-04-16T09:03:25.437Z,20.90
2018-04-16T09:05:51.785Z,19.93
2018-04-16T09:08:19.101Z,19.27
2018-04-16T09:10:45.424Z,23.60
2018-04-16T09:13:11.740Z,22.90
2018-04-16T09:15:38.077Z,21.10
2018-04-16T09:18:04.424Z,21.03
2018-04-16T09:20:30.780Z,21.63
2018-04-16T09:22:57.845Z,19.90
2018-04-16T09:25:24.941Z,19.93
2018-04-16T09:27:51.255Z,21.73
2018-04-16T09:30:17.565Z,20.37
2018-04-16T09:32:43.881Z,19.07
2018-04-16T09:35:10.195Z,19.30
2018-04-16T09:37:37.273Z,18.70
2018-04-16T09:40:03.625Z,18.50
2018-04-16T09:42:29.962Z,19.03
2018-04-16T09:44:56.284Z,15.50
2018-04-16T09:47:22.621Z,18.03
2018-04-16T09:49:48.952Z,17.70
2018-04-16T09:52:15.276Z,21.67
2018-04-16T09:54:41.626Z,16.40
2018-04-16T09:57:07.951Z,15.10
2018-04-16T09:59:35.254Z,18.07
2018-04-16T10:02:02.356Z,17.40
2018-04-16T10:04:28.721Z,18.27
2018-04-16T10:06:55.081Z,17.83
2018-04-16T10:09:21.421Z,17.83
2018-04-16T10:11:47.748Z,17.90
2018-04-16T10:14:14.084Z,18.10
2018-04-16T10:16:40.426Z,17.67
2018-04-16T10:19:06.772Z,17.37
2018-04-16T10:21:33.104Z,16.47
2018-04-16T10:23:59.442Z,17.40
2018-04-16T10:26:25.798Z,16.83
2018-04-16T10:28:52.848Z,16.70
2018-04-16T10:31:19.197Z,16.77
2018-04-16T10:33:46.264Z,15.50
2018-04-16T10:36:12.597Z,14.53
2018-04-16T10:38:38.913Z,14.37
2018-04-16T10:41:05.289Z,14.57
2018-04-16T10:43:31.568Z,13.50
2018-04-16T10:45:58.673Z,13.70
2018-04-16T10:48:25.025Z,12.07
2018-04-16T10:50:51.347Z,13.10
2018-04-16T10:53:17.669Z,12.20
2018-04-16T10:55:44.009Z,11.87
2018-04-16T10:58:10.386Z,12.30
2018-04-16T11:00:36.727Z,12.70
2018-04-16T11:03:03.093Z,10.53
2018-04-16T11:05:29.437Z,12.00
2018-04-16T11:07:55.864Z,11.70
2018-04-16T11:10:22.181Z,10.80
2018-04-16T11:12:48.498Z,12.93
2018-04-16T11:15:14.830Z,12.00
2018-04-16T11:17:41.182Z,12.17
2018-04-16T11:20:07.531Z,15.70
2018-04-16T11:22:33.856Z,15.00
2018-04-16T11:25:00.193Z,15.70
2018-04-16T11:27:26.534Z,11.30
2018-04-16T11:29:53.633Z,13.43
2018-04-16T11:32:20.019Z,12.07
2018-04-16T11:34:46.362Z,13.33
2018-04-16T11:37:13.235Z,12.13
2018-04-16T11:39:39.576Z,12.37
2018-04-16T11:42:05.906Z,14.60
2018-04-16T11:44:32.244Z,16.50
2018-04-16T11:46:58.566Z,15.03
2018-04-16T11:49:24.909Z,15.90
2018-04-16T11:51:51.227Z,14.10
2018-04-16T11:54:17.556Z,14.30
2018-04-16T11:56:43.889Z,12.00
2018-04-16T11:59:10.193Z,14.50
2018-04-16T12:01:36.541Z,13.23
2018-04-16T12:04:02.885Z,15.23
2018-04-16T12:06:29.213Z,14.50
2018-04-16T12:08:55.590Z,14.47
2018-04-16T12:11:22.661Z,14.03
2018-04-16T12:13:48.985Z,14.67
2018-04-16T12:16:15.352Z,13.20
2018-04-16T12:18:41.704Z,12.23
2018-04-16T12:21:08.791Z,12.13
2018-04-16T12:23:35.880Z,12.20
2018-04-16T12:26:02.905Z,14.73
2018-04-16T12:28:30.256Z,12.70
2018-04-16T12:30:56.586Z,12.27
2018-04-16T12:33:22.914Z,14.53
2018-04-16T12:35:49.225Z,13.33
2018-04-16T12:38:16.289Z,12.10
2018-04-16T12:40:42.602Z,11.90
2018-04-16T12:43:08.969Z,8.30
2018-04-16T12:45:35.311Z,7.10
2018-04-16T12:48:01.652Z,7.40
2018-04-16T12:50:27.972Z,7.30
2018-04-16T12:52:54.277Z,6.93
2018-04-16T12:55:20.610Z,7.57
2018-04-16T12:57:46.929Z,8.23
2018-04-16T13:00:13.257Z,8.83
2018-04-16T13:02:40.318Z,9.83
2018-04-16T13:05:07.393Z,9.37
2018-04-16T13:07:33.736Z,10.40
2018-04-16T13:10:00.077Z,11.23
2018-04-16T13:12:26.413Z,11.30
2018-04-16T13:14:52.732Z,10.33
2018-04-16T13:17:19.042Z,9.27
2018-04-16T13:19:45.377Z,13.70
2018-04-16T13:22:11.701Z,10.70
2018-04-16T13:24:38.028Z,11.77
2018-04-16T13:27:04.386Z,10.90
2018-04-16T13:29:30.701Z,11.80
2018-04-16T13:31:57.024Z,11.20
2018-04-16T13:34:24.580Z,12.53
2018-04-16T13:36:50.901Z,14.97
2018-04-16T13:39:18.233Z,12.37
2018-04-16T13:41:45.297Z,10.80
2018-04-16T13:44:11.620Z,11.27
2018-04-16T13:46:37.928Z,10.23
2018-04-16T13:49:04.990Z,11.17
2018-04-16T13:51:33.121Z,10.10
2018-04-16T13:53:59.433Z,9.40
2018-04-16T13:56:25.761Z,11.93
2018-04-16T13:58:53.098Z,11.67
2018-04-16T14:01:19.414Z,10.70
2018-04-16T14:03:45.743Z,9.10
2018-04-16T14:06:12.129Z,10.83
2018-04-16T14:08:39.464Z,10.80
2018-04-16T14:11:05.777Z,12.00
2018-04-16T14:13:32.098Z,13.50
2018-04-16T14:15:58.418Z,13.00
2018-04-16T14:18:25.469Z,14.13
2018-04-16T14:20:51.790Z,12.50
2018-04-16T14:23:18.862Z,14.60
2018-04-16T14:25:45.189Z,13.00
2018-04-16T14:28:11.526Z,12.10
2018-04-16T14:30:37.861Z,11.83
2018-04-16T14:33:04.216Z,12.43
2018-04-16T14:35:30.549Z,11.13
2018-04-16T14:37:56.889Z,11.10
2018-04-16T14:40:23.239Z,12.13
2018-04-16T14:42:49.565Z,10.40
2018-04-16T14:45:15.909Z,10.30
2018-04-16T14:47:42.972Z,11.83
2018-04-16T14:50:09.307Z,18.27
2018-04-16T14:52:35.644Z,13.10
2018-04-16T14:55:02.997Z,11.60
2018-04-16T14:57:29.341Z,10.77
2018-04-16T14:59:56.670Z,8.60
2018-04-16T15:02:23.772Z,7.57
2018-04-16T15:04:50.301Z,9.73
2018-04-16T15:07:16.653Z,10.00
2018-04-16T15:09:43.003Z,10.43
2018-04-16T15:12:10.085Z,12.10
2018-04-16T15:14:36.444Z,9.87
2018-04-16T15:17:03.819Z,10.30
2018-04-16T15:19:30.151Z,13.00
2018-04-16T15:21:56.458Z,12.03
2018-04-16T15:24:22.781Z,11.83
2018-04-16T15:26:49.109Z,10.93
2018-04-16T15:29:15.445Z,11.10
2018-04-16T15:31:41.765Z,14.40
2018-04-16T15:34:08.695Z,14.13
2018-04-16T15:36:35.013Z,10.80
2018-04-16T15:39:02.092Z,12.63
2018-04-16T15:41:28.450Z,13.37
2018-04-16T15:43:54.785Z,15.60
2018-04-16T15:46:22.629Z,13.57
2018-04-16T15:48:48.952Z,13.53
2018-04-16T15:51:16.312Z,13.10
2018-04-16T15:53:42.647Z,12.00
2018-04-16T15:56:09.612Z,11.17
2018-04-16T15:58:35.929Z,11.57
2018-04-16T16:01:02.281Z,12.43
2018-04-16T16:03:28.624Z,13.70
2018-04-16T16:05:55.721Z,13.03
2018-04-16T16:08:23.070Z,13.90
2018-04-16T16:10:49.405Z,12.87
2018-04-16T16:13:17.342Z,14.10
2018-04-16T16:15:43.673Z,12.93
2018-04-16T16:18:11.454Z,12.07
2018-04-16T16:20:37.766Z,9.30
2018-04-16T16:23:04.830Z,8.03
2018-04-16T16:25:31.161Z,5.60
2018-04-16T16:27:57.489Z,5.53
2018-04-16T16:30:23.813Z,5.90
2018-04-16T16:32:50.151Z,5.40
2018-04-16T16:35:16.469Z,6.10
2018-04-16T16:37:42.780Z,5.63
2018-04-16T16:40:09.132Z,7.50
2018-04-16T16:42:35.464Z,10.33
2018-04-16T16:45:01.793Z,11.77
2018-04-16T16:47:29.912Z,12.17
2018-04-16T16:49:56.245Z,8.37
2018-04-16T16:52:22.569Z,8.10
2018-04-16T16:54:49.313Z,6.57
2018-04-16T16:57:15.638Z,6.40
2018-04-16T16:59:41.979Z,7.10
2018-04-16T17:02:08.317Z,10.47
2018-04-16T17:04:35.653Z,8.60
2018-04-16T17:07:03.282Z,7.80
2018-04-16T17:09:29.608Z,9.03
2018-04-16T17:11:56.684Z,11.80
2018-04-16T17:14:23.029Z,9.50
2018-04-16T17:16:49.352Z,11.30
2018-04-16T17:19:16.690Z,11.37
2018-04-16T17:21:43.000Z,13.53
2018-04-16T17:24:10.055Z,12.63
2018-04-16T17:26:36.389Z,15.80
2018-04-16T17:29:02.708Z,17.63
2018-04-16T17:31:30.817Z,15.43
2018-04-16T17:33:58.141Z,15.90
2018-04-16T17:36:24.477Z,21.87
2018-04-16T17:38:51.820Z,22.17
2018-04-16T17:41:18.172Z,34.70
2018-04-16T17:43:45.473Z,21.23
2018-04-16T17:46:11.812Z,21.13
2018-04-16T17:48:38.160Z,22.00
2018-04-16T17:51:05.217Z,20.87
2018-04-16T17:53:32.576Z,22.87
2018-04-16T17:55:59.924Z,22.40
2018-04-16T17:58:26.253Z,22.43
2018-04-16T18:00:52.585Z,27.40
2018-04-16T18:03:19.680Z,25.90
2018-04-16T18:05:46.021Z,26.70
2018-04-16T18:08:12.472Z,25.00
2018-04-16T18:10:38.809Z,23.63
2018-04-16T18:13:05.137Z,22.60
2018-04-16T18:15:31.469Z,20.27
2018-04-16T18:17:57.816Z,20.73
2018-04-16T18:20:24.934Z,19.40
2018-04-16T18:22:51.261Z,17.10
2018-04-16T18:25:17.605Z,17.83
2018-04-16T18:27:44.020Z,18.10
2018-04-16T18:30:10.336Z,13.43
2018-04-16T18:32:36.682Z,13.53
2018-04-16T18:35:03.026Z,12.90
2018-04-16T18:37:29.368Z,10.70
2018-04-16T18:39:56.445Z,11.00
2018-04-16T18:42:22.756Z,7.80
2018-04-16T18:44:49.819Z,9.07
2018-04-16T18:47:16.890Z,7.20
2018-04-16T18:49:43.228Z,7.37
2018-04-16T18:52:09.584Z,6.70
2018-04-16T18:54:35.901Z,7.03
2018-04-16T18:57:02.239Z,7.13
2018-04-16T18:59:28.552Z,7.20
2018-04-16T19:01:54.889Z,6.90
2018-04-16T19:04:21.249Z,7.50
2018-04-16T19:06:47.594Z,6.77
2018-04-16T19:09:14.665Z,8.40
2018-04-16T19:11:40.993Z,7.37
2018-04-16T19:14:07.313Z,8.97
2018-04-16T19:16:34.374Z,7.60
2018-04-16T19:19:01.540Z,9.23
2018-04-16T19:21:34.204Z,9.27
2018-04-16T19:24:00.546Z,10.13
2018-04-16T19:26:27.985Z,11.77
2018-04-16T19:28:55.053Z,14.47
2018-04-16T19:31:21.429Z,13.90
2018-04-16T19:33:53.725Z,11.77
2018-04-16T19:36:20.826Z,11.80
2018-04-16T19:38:47.165Z,12.30
2018-04-16T19:41:13.637Z,13.03
2018-04-16T19:43:41.518Z,14.57
2018-04-16T19:46:07.848Z,14.87
2018-04-16T19:48:40.988Z,14.23
2018-04-16T19:51:08.410Z,16.30
2018-04-16T19:53:34.768Z,17.40
2018-04-16T19:56:07.411Z,14.53
2018-04-16T19:58:34.480Z,18.00
2018-04-16T20:01:00.837Z,18.63
2018-04-16T20:03:33.289Z,18.10
2018-04-16T20:05:59.828Z,16.27
2018-04-16T20:08:26.197Z,21.47
2018-04-16T20:10:52.532Z,18.20
2018-04-16T20:13:18.961Z,18.13
2018-04-16T20:15:45.426Z,17.87
2018-04-16T20:18:11.876Z,15.93
2018-04-16T20:20:38.231Z,15.70
2018-04-16T20:23:04.570Z,17.47
2018-04-16T20:25:30.929Z,16.77
2018-04-16T20:27:57.507Z,16.23
2018-04-16T20:30:23.898Z,15.97
2018-04-16T20:32:50.222Z,16.70
2018-04-16T20:35:16.589Z,16.57
2018-04-16T20:37:43.665Z,18.13
2018-04-16T20:40:09.985Z,15.70
2018-04-16T20:42:39.429Z,15.03
2018-04-16T20:45:05.781Z,15.03
2018-04-16T20:47:32.117Z,15.73
2018-04-16T20:49:58.461Z,15.00
2018-04-16T20:52:24.777Z,15.00
2018-04-16T20:54:51.094Z,17.07
2018-04-16T20:57:18.416Z,15.50
2018-04-16T20:59:52.504Z,16.03
2018-04-16T21:02:19.613Z,16.90
2018-04-16T21:04:45.957Z,17.20
2018-04-16T21:07:13.409Z,17.77
2018-04-16T21:09:40.469Z,17.47
2018-04-16T21:12:06.930Z,17.47
2018-04-16T21:14:33.423Z,18.37
2018-04-16T21:17:00.883Z,16.73
2018-04-16T21:19:27.933Z,16.87
2018-04-16T21:21:54.390Z,16.63
2018-04-16T21:24:20.802Z,16.07
2018-04-16T21:26:47.257Z,18.20
2018-04-16T21:29:13.669Z,17.30
2018-04-16T21:31:40.101Z,18.17
2018-04-16T21:34:07.230Z,19.70
2018-04-16T21:36:33.663Z,19.47
2018-04-16T21:39:00.647Z,19.33
2018-04-16T21:41:27.097Z,18.10
2018-04-16T21:43:54.290Z,16.97
2018-04-16T21:46:20.738Z,19.13
2018-04-16T21:48:47.175Z,19.20
2018-04-16T21:51:14.579Z,16.20
2018-04-16T21:53:41.774Z,16.90
2018-04-16T21:56:08.198Z,15.20
2018-04-16T21:58:35.342Z,15.63
2018-04-16T22:01:01.760Z,16.53
2018-04-16T22:03:28.411Z,17.50
2018-04-16T22:05:54.811Z,18.00
2018-04-16T22:08:22.553Z,17.17
2018-04-16T22:10:48.966Z,16.77
2018-04-16T22:13:15.397Z,16.50
2018-04-16T22:15:41.935Z,15.83
2018-04-16T22:18:08.328Z,16.67
2018-04-16T22:20:34.797Z,16.40
2018-04-16T22:23:01.202Z,17.07
2018-04-16T22:25:27.750Z,16.57
2018-04-16T22:27:54.199Z,17.07
2018-04-16T22:30:22.333Z,17.90
2018-04-16T22:32:50.151Z,17.30
2018-04-16T22:35:16.645Z,18.30
2018-04-16T22:37:43.049Z,17.93
2018-04-16T22:40:10.198Z,19.13
2018-04-16T22:42:38.396Z,19.80
2018-04-16T22:45:04.842Z,20.43
2018-04-16T22:47:31.246Z,21.60
2018-04-16T22:49:58.451Z,21.50
2018-04-16T22:52:25.906Z,20.07
2018-04-16T22:54:52.346Z,20.27
2018-04-16T22:57:19.724Z,24.03
2018-04-16T22:59:46.060Z,22.80
2018-04-16T23:02:12.569Z,21.97
2018-04-16T23:04:38.900Z,22.53
2018-04-16T23:07:06.239Z,23.30
2018-04-16T23:09:32.567Z,24.23
2018-04-16T23:11:58.892Z,22.77
2018-04-16T23:14:25.217Z,24.47
2018-04-16T23:16:51.529Z,24.23
2018-04-16T23:19:18.581Z,23.37
2018-04-16T23:21:44.925Z,23.53
2018-04-16T23:24:11.272Z,25.23
2018-04-16T23:26:37.632Z,24.63
2018-04-16T23:29:03.949Z,21.27
2018-04-16T23:31:30.289Z,22.20
2018-04-16T23:33:57.611Z,22.30
2018-04-16T23:36:23.946Z,23.13
2018-04-16T23:38:50.281Z,23.47
2018-04-16T23:41:16.597Z,22.93
2018-04-16T23:43:42.926Z,23.53
2018-04-16T23:46:09.242Z,23.47
2018-04-16T23:48:35.585Z,24.07
2018-04-16T23:51:01.901Z,21.03
2018-04-16T23:53:28.956Z,22.93
2018-04-16T23:55:55.290Z,22.80
2018-04-16T23:58:21.607Z,21.67
